createdAt,value
2022-08-17T00:00:43.005Z,100043.73
2022-08-17T00:03:13.573Z,100042.30
2022-08-17T00:05:46.596Z,100043.09
2022-08-17T00:08:18.331Z,100042.47
2022-08-17T00:10:47.979Z,100040.69
2022-08-17T00:13:20.124Z,100038.41
2022-08-17T00:15:49.383Z,100044.75
2022-08-17T00:19:02.080Z,100042.07
2022-08-17T00:21:10.399Z,100036.09
2022-08-17T00:23:47.974Z,100032.52
2022-08-17T00:26:44.496Z,100033.58
2022-08-17T00:29:09.259Z,100033.41
2022-08-17T00:31:38.605Z,100029.59
2022-08-17T00:34:08.568Z,100038.90
2022-08-17T00:36:37.383Z,100039.82
2022-08-17T00:39:06.434Z,100044.25
2022-08-17T00:41:35.488Z,100034.67
2022-08-17T00:44:06.061Z,100028.53
2022-08-17T00:46:38.679Z,100029.34
2022-08-17T00:49:09.019Z,100024.95
2022-08-17T00:51:43.863Z,100021.79
2022-08-17T00:54:18.033Z,100018.65
2022-08-17T00:56:50.518Z,100023.07
2022-08-17T00:59:22.797Z,100023.96
2022-08-17T01:01:52.077Z,100030.00
2022-08-17T01:04:22.215Z,100034.77
2022-08-17T01:06:52.841Z,100036.79
2022-08-17T01:09:21.793Z,100037.23
2022-08-17T01:11:51.780Z,100038.92
2022-08-17T01:14:21.793Z,100042.46
2022-08-17T01:16:53.513Z,100044.77
2022-08-17T01:19:31.667Z,100050.38
2022-08-17T01:22:06.445Z,100043.25
2022-08-17T01:24:37.102Z,100039.34
2022-08-17T01:27:10.260Z,100034.77
2022-08-17T01:29:43.598Z,100032.56
2022-08-17T01:32:12.899Z,100028.04
2022-08-17T01:34:45.528Z,100031.86
2022-08-17T01:37:27.213Z,100040.89
2022-08-17T01:40:02.567Z,100046.85
2022-08-17T01:42:33.123Z,100047.27
2022-08-17T01:45:07.675Z,100047.77
2022-08-17T01:47:36.978Z,100042.20
2022-08-17T01:50:11.931Z,100040.05
2022-08-17T01:52:41.788Z,100046.96
2022-08-17T01:55:12.968Z,100046.60
2022-08-17T01:57:41.787Z,100042.84
2022-08-17T02:00:12.792Z,100050.84
2022-08-17T02:02:44.425Z,100051.69
2022-08-17T02:05:13.397Z,100056.13
2022-08-17T02:08:00.064Z,100059.29
2022-08-17T02:10:34.066Z,100058.29
2022-08-17T02:13:04.177Z,100054.35
2022-08-17T02:15:34.170Z,100052.15
2022-08-17T02:18:04.179Z,100048.67
2022-08-17T02:20:42.044Z,100042.02
2022-08-17T02:23:13.944Z,100042.30
2022-08-17T02:25:47.144Z,100042.50
2022-08-17T02:28:17.251Z,100042.96
2022-08-17T02:31:01.331Z,100044.34
2022-08-17T02:33:42.491Z,100043.34
2022-08-17T02:36:13.683Z,100035.44
2022-08-17T02:38:43.437Z,100035.46
2022-08-17T02:41:12.743Z,100037.67
2022-08-17T02:43:41.936Z,100036.00
2022-08-17T02:46:12.167Z,100041.31
2022-08-17T02:48:41.456Z,100037.30
2022-08-17T02:51:10.614Z,100039.45
2022-08-17T02:53:39.524Z,100042.03
2022-08-17T02:56:08.590Z,100040.86
2022-08-17T02:58:37.930Z,100046.67
2022-08-17T03:01:09.201Z,100054.27
2022-08-17T03:03:39.135Z,100051.38
2022-08-17T03:06:09.325Z,100046.89
2022-08-17T03:08:38.210Z,100046.42
2022-08-17T03:11:07.032Z,100048.65
2022-08-17T03:13:35.821Z,100049.39
2022-08-17T03:16:05.076Z,100054.42
2022-08-17T03:18:33.969Z,100056.05
2022-08-17T03:21:03.903Z,100054.75
2022-08-17T03:23:33.403Z,100060.10
2022-08-17T03:26:02.262Z,100057.45
2022-08-17T03:28:31.049Z,100062.05
2022-08-17T03:30:59.997Z,100062.59
2022-08-17T03:33:29.055Z,100058.42
2022-08-17T03:35:58.879Z,100059.50
2022-08-17T03:38:27.803Z,100058.77
2022-08-17T03:40:59.775Z,100059.38
2022-08-17T03:43:31.820Z,100061.90
2022-08-17T03:46:28.691Z,100061.81
2022-08-17T03:49:23.553Z,100061.00
2022-08-17T03:52:10.848Z,100058.38
2022-08-17T03:54:59.033Z,100063.97
2022-08-17T03:57:28.605Z,100068.54
2022-08-17T03:59:57.973Z,100074.27
2022-08-17T04:02:29.269Z,100073.34
2022-08-17T04:04:58.673Z,100075.08
2022-08-17T04:07:29.754Z,100070.11
2022-08-17T04:09:59.231Z,100069.41
2022-08-17T04:12:30.120Z,100068.98
2022-08-17T04:14:59.202Z,100071.58
2022-08-17T04:17:29.344Z,100076.02
2022-08-17T04:19:58.380Z,100077.38
2022-08-17T04:22:30.823Z,100077.82
2022-08-17T04:25:07.638Z,100074.89
2022-08-17T04:27:36.534Z,100074.15
2022-08-17T04:30:07.334Z,100069.81
2022-08-17T04:35:41.351Z,100067.02
2022-08-17T04:38:16.076Z,100068.90
2022-08-17T04:41:05.673Z,100069.97
2022-08-17T04:43:39.533Z,100066.04
2022-08-17T04:46:13.830Z,100066.59
2022-08-17T04:48:48.460Z,100068.70
2022-08-17T04:51:25.166Z,100066.19
2022-08-17T04:54:00.607Z,100063.33
2022-08-17T04:56:31.522Z,100061.42
2022-08-17T04:59:07.590Z,100062.02
2022-08-17T05:01:42.410Z,100063.16
2022-08-17T05:04:20.930Z,100068.87
2022-08-17T05:07:05.785Z,100062.57
2022-08-17T05:09:37.945Z,100078.38
2022-08-17T05:12:10.678Z,100080.88
2022-08-17T05:14:43.163Z,100083.98
2022-08-17T05:17:15.441Z,100081.49
2022-08-17T05:19:51.749Z,100084.09
2022-08-17T05:22:24.371Z,100088.76
2022-08-17T05:24:56.589Z,100089.08
2022-08-17T05:27:35.084Z,100093.64
2022-08-17T05:30:09.538Z,100098.73
2022-08-17T05:32:41.748Z,100095.65
2022-08-17T05:35:13.948Z,100096.66
2022-08-17T05:37:46.118Z,100100.18
2022-08-17T05:40:19.086Z,100100.23
2022-08-17T05:42:51.865Z,100098.77
2022-08-17T05:45:54.135Z,100099.52
2022-08-17T05:48:18.762Z,100097.19
2022-08-17T05:50:57.200Z,100097.73
2022-08-17T05:53:35.214Z,100094.58
2022-08-17T05:56:29.611Z,100095.91
2022-08-17T05:59:12.086Z,100095.68
2022-08-17T06:01:53.067Z,100105.02
2022-08-17T06:04:38.034Z,100106.00
2022-08-17T06:07:19.041Z,100106.96
2022-08-17T06:09:57.455Z,100103.71
2022-08-17T06:12:43.700Z,100107.89
2022-08-17T06:15:29.941Z,100111.52
2022-08-17T06:18:05.653Z,100113.23
2022-08-17T06:20:48.393Z,100112.33
2022-08-17T06:23:28.460Z,100119.63
2022-08-17T06:26:05.312Z,100125.54
2022-08-17T06:28:43.106Z,100128.73
2022-08-17T06:31:22.504Z,100130.31
2022-08-17T06:33:55.253Z,100132.44
2022-08-17T06:36:45.883Z,100130.52
2022-08-17T06:39:33.955Z,100132.02
2022-08-17T06:42:59.871Z,100130.50
2022-08-17T06:45:19.382Z,100126.79
2022-08-17T06:47:59.775Z,100124.70
2022-08-17T06:50:37.735Z,100125.27
2022-08-17T06:53:22.225Z,100126.38
2022-08-17T06:56:01.162Z,100120.73
2022-08-17T06:58:35.887Z,100117.41
2022-08-17T07:01:15.505Z,100108.52
2022-08-17T07:03:55.076Z,100111.41
2022-08-17T07:06:38.119Z,100110.62
2022-08-17T07:09:18.347Z,100117.67
2022-08-17T07:11:55.814Z,100115.84
2022-08-17T07:14:44.568Z,100111.39
2022-08-17T07:17:20.696Z,100109.44
2022-08-17T07:19:58.639Z,100102.63
2022-08-17T07:22:54.816Z,100108.20
2022-08-17T07:25:32.759Z,100105.52
2022-08-17T07:28:07.927Z,100108.94
2022-08-17T07:30:54.983Z,100113.26
2022-08-17T07:33:31.591Z,100111.66
2022-08-17T07:36:03.885Z,100113.09
2022-08-17T07:38:55.461Z,100112.95
2022-08-17T07:41:27.866Z,100112.04
2022-08-17T07:44:20.043Z,100113.22
2022-08-17T07:47:12.281Z,100115.52
2022-08-17T07:49:47.528Z,100111.73
2022-08-17T07:52:51.971Z,100109.65
2022-08-17T07:55:35.074Z,100109.50
2022-08-17T07:58:07.322Z,100109.98
2022-08-17T08:00:39.727Z,100104.83
2022-08-17T08:03:28.650Z,100107.17
2022-08-17T08:06:03.644Z,100103.19
2022-08-17T08:08:39.364Z,100105.55
2022-08-17T08:11:11.087Z,100104.77
2022-08-17T08:13:45.871Z,100099.29
2022-08-17T08:16:30.422Z,100099.05
2022-08-17T08:19:03.642Z,100098.02
2022-08-17T08:21:44.105Z,100100.27
2022-08-17T08:24:33.472Z,100103.17
2022-08-17T08:27:23.315Z,100104.09
2022-08-17T08:30:05.096Z,100101.10
2022-08-17T08:32:50.646Z,100098.91
2022-08-17T08:35:32.628Z,100098.52
2022-08-17T08:38:16.669Z,100097.07
2022-08-17T08:41:09.146Z,100095.06
2022-08-17T08:43:53.245Z,100089.52
2022-08-17T08:46:35.472Z,100091.77
2022-08-17T08:49:45.570Z,100093.98
2022-08-17T08:52:32.445Z,100089.64
2022-08-17T08:55:12.376Z,100086.34
2022-08-17T08:57:51.170Z,100085.54
2022-08-17T09:00:26.355Z,100082.27
2022-08-17T09:03:20.254Z,100081.93
2022-08-17T09:06:37.902Z,100081.95
2022-08-17T09:09:11.588Z,100084.11
2022-08-17T09:12:01.411Z,100086.77
2022-08-17T09:14:45.402Z,100085.40
2022-08-17T09:17:22.702Z,100082.13
2022-08-17T09:20:04.085Z,100076.52
2022-08-17T09:22:42.811Z,100077.70
2022-08-17T09:25:18.234Z,100079.29
2022-08-17T09:27:57.461Z,100073.00
2022-08-17T09:30:42.413Z,100074.44
2022-08-17T09:33:18.703Z,100070.42
2022-08-17T09:35:55.046Z,100074.05
2022-08-17T09:38:35.691Z,100074.48
2022-08-17T09:41:17.720Z,100074.57
2022-08-17T09:44:01.835Z,100069.83
2022-08-17T09:46:39.249Z,100071.87
2022-08-17T09:49:25.030Z,100070.55
2022-08-17T09:52:02.437Z,100073.11
2022-08-17T09:54:39.734Z,100070.27
2022-08-17T09:57:31.060Z,100071.94
2022-08-17T10:00:23.804Z,100068.28
2022-08-17T10:03:16.387Z,100069.05
2022-08-17T10:05:56.568Z,100071.36
2022-08-17T10:08:37.461Z,100069.30
2022-08-17T10:11:22.604Z,100070.13
2022-08-17T10:14:36.720Z,100064.77
2022-08-17T10:17:16.843Z,100063.03
2022-08-17T10:20:00.361Z,100065.27
2022-08-17T10:22:56.976Z,100065.60
2022-08-17T10:25:55.063Z,100064.79
2022-08-17T10:28:31.640Z,100065.09
2022-08-17T10:34:19.256Z,100059.53
2022-08-17T10:37:00.718Z,100050.25
2022-08-17T10:39:51.952Z,100045.81
2022-08-17T10:42:33.360Z,100046.38
2022-08-17T10:45:16.821Z,100045.45
2022-08-17T10:48:05.829Z,100035.08
2022-08-17T10:51:08.382Z,100040.91
2022-08-17T10:54:02.052Z,100033.73
2022-08-17T10:56:50.532Z,100033.70
2022-08-17T10:59:58.361Z,100032.73
2022-08-17T11:02:40.833Z,100030.02
2022-08-17T11:05:44.018Z,100023.60
2022-08-17T11:08:51.813Z,100023.09
2022-08-17T11:11:47.572Z,100019.66
2022-08-17T11:14:29.984Z,100018.05
2022-08-17T11:17:16.703Z,100012.47
2022-08-17T11:20:07.748Z,100006.64
2022-08-17T11:23:11.017Z,100010.38
2022-08-17T11:25:48.624Z,100013.59
2022-08-17T11:28:24.692Z,100010.70
2022-08-17T11:31:00.240Z,100000.63
2022-08-17T11:33:54.528Z,99996.15
2022-08-17T11:37:02.652Z,99995.34
2022-08-17T11:40:06.703Z,99994.20
2022-08-17T11:42:58.076Z,99988.48
2022-08-17T11:45:52.970Z,99987.08
2022-08-17T11:48:54.542Z,99984.52
2022-08-17T11:51:47.810Z,99980.66
2022-08-17T11:54:43.344Z,99974.52
2022-08-17T11:58:06.709Z,99977.30
2022-08-17T12:00:57.915Z,99976.98
2022-08-17T12:03:54.458Z,99976.73
2022-08-17T12:06:42.638Z,99975.02
2022-08-17T12:09:21.047Z,99971.09
2022-08-17T12:12:12.445Z,99967.73
2022-08-17T12:15:12.920Z,99960.63
2022-08-17T12:17:52.622Z,99957.39
2022-08-17T12:20:30.482Z,99958.87
2022-08-17T12:23:10.625Z,99955.52
2022-08-17T12:25:49.585Z,99955.55
2022-08-17T12:28:30.787Z,99955.64
2022-08-17T12:31:07.139Z,99957.83
2022-08-17T12:33:43.967Z,99956.45
2022-08-17T12:36:21.104Z,99953.81
2022-08-17T12:38:59.607Z,99954.02
2022-08-17T12:41:48.049Z,99953.89
2022-08-17T12:44:25.167Z,99952.73
2022-08-17T12:47:04.719Z,99950.56
2022-08-17T12:49:39.479Z,99948.21
2022-08-17T12:52:14.450Z,99948.88
2022-08-17T12:54:53.785Z,99943.50
2022-08-17T12:57:28.479Z,99937.66
2022-08-17T13:00:00.981Z,99934.30
2022-08-17T13:02:44.079Z,99944.11
2022-08-17T13:05:25.364Z,99937.58
2022-08-17T13:07:59.763Z,99934.05
2022-08-17T13:10:34.009Z,99943.94
2022-08-17T13:13:26.160Z,99938.86
2022-08-17T13:16:00.981Z,99933.26
2022-08-17T13:18:39.181Z,99933.33
2022-08-17T13:21:23.314Z,99931.84
2022-08-17T13:24:06.033Z,99930.08
2022-08-17T13:26:41.488Z,99930.50
2022-08-17T13:29:24.102Z,99935.75
2022-08-17T13:32:14.389Z,99939.11
2022-08-17T13:35:16.257Z,99938.31
2022-08-17T13:37:42.621Z,99932.86
2022-08-17T13:40:37.102Z,99938.85
2022-08-17T13:43:09.979Z,99948.85
2022-08-17T13:45:52.633Z,99950.91
2022-08-17T13:48:30.332Z,99951.81
2022-08-17T13:51:21.160Z,99950.09
2022-08-17T13:53:59.393Z,99961.05
2022-08-17T13:56:40.093Z,99962.23
2022-08-17T13:59:16.398Z,99955.92
2022-08-17T14:01:53.774Z,99952.63
2022-08-17T14:04:29.477Z,99950.07
2022-08-17T14:07:23.393Z,99947.77
2022-08-17T14:09:59.364Z,99955.40
2022-08-17T14:12:34.475Z,99962.33
2022-08-17T14:15:08.473Z,99964.33
2022-08-17T14:17:40.938Z,99966.31
2022-08-17T14:20:15.362Z,99968.21
2022-08-17T14:22:51.101Z,99972.42
2022-08-17T14:25:25.093Z,99973.83
2022-08-17T14:27:57.709Z,99976.71
2022-08-17T14:30:30.981Z,99977.98
2022-08-17T14:33:03.277Z,99978.50
2022-08-17T14:35:35.608Z,99983.95
2022-08-17T14:38:08.115Z,99980.80
2022-08-17T14:40:41.206Z,99984.77
2022-08-17T14:43:13.433Z,99988.83
2022-08-17T14:45:45.732Z,99990.30
2022-08-17T14:48:17.961Z,99996.60
2022-08-17T14:50:50.149Z,99994.65
2022-08-17T14:53:22.314Z,99998.64
2022-08-17T14:55:54.549Z,99995.34
2022-08-17T14:58:26.774Z,99991.97
2022-08-17T15:00:59.095Z,99993.52
2022-08-17T15:03:31.544Z,99995.09
2022-08-17T15:06:03.998Z,99987.63
2022-08-17T15:08:36.438Z,99989.18
2022-08-17T15:11:14.263Z,99990.71
2022-08-17T15:13:52.492Z,99982.91
2022-08-17T15:16:26.286Z,99984.58
2022-08-17T15:18:58.465Z,99983.02
2022-08-17T15:21:31.111Z,99985.70
2022-08-17T15:24:03.309Z,99990.46
2022-08-17T15:26:37.002Z,99987.71
2022-08-17T15:29:09.617Z,99986.95
2022-08-17T15:31:42.268Z,99986.32
2022-08-17T15:34:14.487Z,99980.41
2022-08-17T15:36:49.513Z,99984.65
2022-08-17T15:39:22.244Z,99984.44
2022-08-17T15:41:58.659Z,99986.98
2022-08-17T15:44:34.798Z,99993.25
2022-08-17T15:47:07.637Z,99991.11
2022-08-17T15:49:42.323Z,99991.77
2022-08-17T15:52:21.580Z,99993.27
2022-08-17T15:54:55.804Z,99995.81
2022-08-17T15:57:29.027Z,99998.88
2022-08-17T16:00:01.415Z,100003.41
2022-08-17T16:03:44.760Z,100000.30
2022-08-17T16:05:31.212Z,100004.69
2022-08-17T16:08:03.911Z,100005.67
2022-08-17T16:10:36.201Z,100008.84
2022-08-17T16:13:17.372Z,100006.33
2022-08-17T16:15:56.696Z,100009.81
2022-08-17T16:18:32.077Z,100007.21
2022-08-17T16:21:21.552Z,100008.60
2022-08-17T16:23:56.910Z,100010.84
2022-08-17T16:26:30.643Z,100012.11
2022-08-17T16:29:06.272Z,100012.96
2022-08-17T16:31:38.904Z,100015.98
2022-08-17T16:34:17.505Z,100011.05
2022-08-17T16:36:56.022Z,100016.80
2022-08-17T16:39:30.922Z,100018.77
2022-08-17T16:42:03.137Z,100022.40
2022-08-17T16:44:35.718Z,100028.04
2022-08-17T16:47:09.896Z,100028.16
2022-08-17T16:49:42.083Z,100028.52
2022-08-17T16:52:15.069Z,100028.09
2022-08-17T16:55:06.513Z,100029.13
2022-08-17T16:57:38.803Z,100032.39
2022-08-17T17:00:21.166Z,100035.05
2022-08-17T17:02:54.764Z,100038.36
2022-08-17T17:05:42.432Z,100038.95
2022-08-17T17:08:21.192Z,100046.58
2022-08-17T17:10:56.565Z,100050.80
2022-08-17T17:13:32.294Z,100050.64
2022-08-17T17:16:15.895Z,100055.55
2022-08-17T17:19:01.815Z,100053.66
2022-08-17T17:21:39.098Z,100053.61
2022-08-17T17:24:16.511Z,100053.79
2022-08-17T17:27:07.118Z,100061.23
2022-08-17T17:29:53.267Z,100061.23
2022-08-17T17:32:38.298Z,100058.22
2022-08-17T17:35:17.179Z,100059.05
2022-08-17T17:37:51.522Z,100060.08
2022-08-17T17:40:26.725Z,100061.52
2022-08-17T17:43:14.303Z,100060.59
2022-08-17T17:45:55.112Z,100065.35
2022-08-17T17:48:29.363Z,100072.83
2022-08-17T17:51:11.984Z,100075.14
2022-08-17T17:53:55.215Z,100077.84
2022-08-17T17:56:39.869Z,100073.95
2022-08-17T17:59:27.157Z,100075.23
2022-08-17T18:02:08.822Z,100077.38
2022-08-17T18:04:51.336Z,100084.99
2022-08-17T18:07:33.459Z,100087.81
2022-08-17T18:10:29.463Z,100091.70
2022-08-17T18:13:11.806Z,100086.58
2022-08-17T18:15:51.407Z,100085.98
2022-08-17T18:18:39.833Z,100092.64
2022-08-17T18:21:19.514Z,100095.61
2022-08-17T18:23:56.854Z,100095.67
2022-08-17T18:26:53.267Z,100099.40
2022-08-17T18:29:42.486Z,100097.23
2022-08-17T18:32:36.328Z,100105.77
2022-08-17T18:35:30.910Z,100112.92
2022-08-17T18:38:23.248Z,100111.45
2022-08-17T18:41:18.860Z,100111.84
2022-08-17T18:44:03.663Z,100111.89
2022-08-17T18:46:37.940Z,100110.86
2022-08-17T18:49:28.809Z,100112.23
2022-08-17T18:52:15.436Z,100116.16
2022-08-17T18:55:09.861Z,100119.60
2022-08-17T18:57:45.607Z,100120.80
2022-08-17T19:00:22.683Z,100123.38
2022-08-17T19:02:58.363Z,100120.10
2022-08-17T19:05:36.782Z,100122.23
2022-08-17T19:08:25.287Z,100115.05
2022-08-17T19:11:02.472Z,100118.77
2022-08-17T19:13:41.155Z,100121.41
2022-08-17T19:16:18.715Z,100120.20
2022-08-17T19:18:58.728Z,100123.96
2022-08-17T19:21:40.460Z,100126.32
2022-08-17T19:24:19.687Z,100125.33
2022-08-17T19:26:57.802Z,100128.92
2022-08-17T19:29:38.896Z,100126.88
2022-08-17T19:32:21.909Z,100127.97
2022-08-17T19:34:54.531Z,100125.09
2022-08-17T19:37:36.877Z,100124.15
2022-08-17T19:40:51.052Z,100126.55
2022-08-17T19:43:24.652Z,100127.36
2022-08-17T19:46:06.113Z,100124.68
2022-08-17T19:48:51.849Z,100132.98
2022-08-17T19:51:35.397Z,100124.18
2022-08-17T19:54:16.005Z,100127.79
2022-08-17T19:56:56.825Z,100126.08
2022-08-17T19:59:48.739Z,100128.59
2022-08-17T20:02:32.396Z,100133.19
2022-08-17T20:05:07.781Z,100129.89
2022-08-17T20:07:48.633Z,100131.75
2022-08-17T20:10:30.281Z,100137.04
2022-08-17T20:13:09.408Z,100135.66
2022-08-17T20:15:43.629Z,100139.91
2022-08-17T20:18:25.032Z,100142.46
2022-08-17T20:21:02.960Z,100146.23
2022-08-17T20:23:46.488Z,100148.42
2022-08-17T20:26:26.578Z,100151.06
2022-08-17T20:29:37.422Z,100152.84
2022-08-17T20:32:27.395Z,100156.96
2022-08-17T20:35:21.182Z,100158.38
2022-08-17T20:37:59.866Z,100155.05
2022-08-17T20:40:39.403Z,100154.83
2022-08-17T20:43:45.763Z,100155.48
2022-08-17T20:46:32.748Z,100151.45
2022-08-17T20:49:26.214Z,100156.45
2022-08-17T20:52:08.411Z,100164.41
2022-08-17T20:54:53.076Z,100156.92
2022-08-17T20:57:50.791Z,100157.46
2022-08-17T21:00:50.327Z,100150.62
2022-08-17T21:03:50.997Z,100160.27
2022-08-17T21:06:26.939Z,100160.70
2022-08-17T21:08:59.641Z,100163.98
2022-08-17T21:12:04.012Z,100168.34
2022-08-17T21:14:57.494Z,100176.36
2022-08-17T21:17:46.538Z,100179.48
2022-08-17T21:20:32.608Z,100187.38
2022-08-17T21:23:25.613Z,100189.18
2022-08-17T21:26:30.399Z,100194.42
2022-08-17T21:29:29.964Z,100198.40
2022-08-17T21:32:28.560Z,100203.56
2022-08-17T21:35:47.296Z,100203.45
2022-08-17T21:38:22.517Z,100204.04
2022-08-17T21:40:54.497Z,100210.63
2022-08-17T21:43:32.618Z,100206.58
2022-08-17T21:46:09.623Z,100209.21
2022-08-17T21:48:49.438Z,100206.93
2022-08-17T21:51:30.306Z,100211.20
2022-08-17T21:54:06.129Z,100211.95
2022-08-17T21:56:42.935Z,100209.87
2022-08-17T21:59:27.405Z,100208.48
2022-08-17T22:02:02.155Z,100211.77
2022-08-17T22:04:36.419Z,100212.06
2022-08-17T22:07:11.316Z,100215.90
2022-08-17T22:09:47.293Z,100220.87
2022-08-17T22:12:21.607Z,100218.58
2022-08-17T22:15:04.374Z,100214.95
2022-08-17T22:17:40.488Z,100206.55
2022-08-17T22:20:16.879Z,100203.42
2022-08-17T22:23:30.017Z,100199.76
2022-08-17T22:26:05.212Z,100198.83
2022-08-17T22:28:46.949Z,100197.00
2022-08-17T22:31:20.845Z,100194.65
2022-08-17T22:34:07.986Z,100201.83
2022-08-17T22:36:41.991Z,100197.94
2022-08-17T22:39:42.868Z,100201.39
2022-08-17T22:42:18.031Z,100199.52
2022-08-17T22:44:53.421Z,100195.96
2022-08-17T22:47:38.767Z,100192.83
2022-08-17T22:50:23.406Z,100197.55
2022-08-17T22:53:22.320Z,100195.58
2022-08-17T22:56:14.999Z,100188.05
2022-08-17T22:59:11.479Z,100190.05
2022-08-17T23:01:46.544Z,100187.33
2022-08-17T23:04:37.269Z,100184.61
2022-08-17T23:07:09.720Z,100187.84
2022-08-17T23:09:41.893Z,100189.82
2022-08-17T23:12:27.955Z,100195.15
2022-08-17T23:15:04.782Z,100196.70
2022-08-17T23:17:37.672Z,100196.34
2022-08-17T23:20:13.992Z,100208.52
2022-08-17T23:22:51.723Z,100202.82
2022-08-17T23:25:29.208Z,100195.80
2022-08-17T23:28:03.009Z,100195.60
2022-08-17T23:30:38.267Z,100197.13
2022-08-17T23:33:11.552Z,100192.55
2022-08-17T23:35:44.754Z,100196.52
2022-08-17T23:38:17.246Z,100197.79
2022-08-17T23:40:49.462Z,100200.41
2022-08-17T23:43:25.331Z,100199.17
2022-08-17T23:45:59.844Z,100200.69
2022-08-17T23:48:36.677Z,100202.09
2022-08-17T23:51:14.007Z,100203.52
2022-08-17T23:53:50.186Z,100204.71
2022-08-17T23:56:24.716Z,100197.21
2022-08-17T23:58:58.636Z,100195.91
